sensor_id;sensor_type;location;lat;lon;timestamp;temperature;humidity
67820;DHT22;54618;52.018;5.576;2023-11-19T00:28:09;13.50;94.90
67820;DHT22;54618;52.018;5.576;2023-11-19T00:30:37;13.50;94.80
67820;DHT22;54618;52.018;5.576;2023-11-19T00:33:03;13.50;94.90
67820;DHT22;54618;52.018;5.576;2023-11-19T00:35:29;13.50;94.90
67820;DHT22;54618;52.018;5.576;2023-11-19T00:37:57;13.50;95.00
67820;DHT22;54618;52.018;5.576;2023-11-19T00:40:23;13.50;95.00
67820;DHT22;54618;52.018;5.576;2023-11-19T00:42:49;13.50;95.10
67820;DHT22;54618;52.018;5.576;2023-11-19T00:45:15;13.50;95.10
67820;DHT22;54618;52.018;5.576;2023-11-19T00:47:43;13.40;95.10
67820;DHT22;54618;52.018;5.576;2023-11-19T00:50:09;13.40;95.10
67820;DHT22;54618;52.018;5.576;2023-11-19T00:52:35;13.40;95.20
67820;DHT22;54618;52.018;5.576;2023-11-19T00:55:03;13.40;95.20
67820;DHT22;54618;52.018;5.576;2023-11-19T00:57:29;13.40;95.10
67820;DHT22;54618;52.018;5.576;2023-11-19T00:59:55;13.40;95.20
67820;DHT22;54618;52.018;5.576;2023-11-19T01:02:22;13.40;95.20
67820;DHT22;54618;52.018;5.576;2023-11-19T01:04:48;13.40;95.20
67820;DHT22;54618;52.018;5.576;2023-11-19T01:07:15;13.40;95.20
67820;DHT22;54618;52.018;5.576;2023-11-19T01:09:44;13.40;95.20
67820;DHT22;54618;52.018;5.576;2023-11-19T01:12:11;13.40;95.20
67820;DHT22;54618;52.018;5.576;2023-11-19T01:14:43;13.30;95.20
67820;DHT22;54618;52.018;5.576;2023-11-19T01:17:09;13.40;95.10
67820;DHT22;54618;52.018;5.576;2023-11-19T01:19:35;13.30;95.10
67820;DHT22;54618;52.018;5.576;2023-11-19T01:22:02;13.30;95.10
67820;DHT22;54618;52.018;5.576;2023-11-19T01:24:29;13.30;95.00
67820;DHT22;54618;52.018;5.576;2023-11-19T01:26:56;13.30;95.00
67820;DHT22;54618;52.018;5.576;2023-11-19T01:29:23;13.30;95.00
67820;DHT22;54618;52.018;5.576;2023-11-19T01:31:49;13.30;95.00
67820;DHT22;54618;52.018;5.576;2023-11-19T01:34:19;13.30;94.90
67820;DHT22;54618;52.018;5.576;2023-11-19T01:36:49;13.30;94.90
67820;DHT22;54618;52.018;5.576;2023-11-19T01:39:19;13.30;94.90
67820;DHT22;54618;52.018;5.576;2023-11-19T01:41:52;13.30;94.90
67820;DHT22;54618;52.018;5.576;2023-11-19T01:44:20;13.30;94.90
67820;DHT22;54618;52.018;5.576;2023-11-19T01:46:49;13.30;94.90
67820;DHT22;54618;52.018;5.576;2023-11-19T01:57:06;13.30;94.80
67820;DHT22;54618;52.018;5.576;2023-11-19T02:02:10;13.30;94.80
67820;DHT22;54618;52.018;5.576;2023-11-19T02:04:49;13.20;94.80
67820;DHT22;54618;52.018;5.576;2023-11-19T02:07:24;13.20;94.90
67820;DHT22;54618;52.018;5.576;2023-11-19T02:09:54;13.20;94.80
67820;DHT22;54618;52.018;5.576;2023-11-19T02:12:19;13.20;94.70
67820;DHT22;54618;52.018;5.576;2023-11-19T02:14:53;13.20;94.70
67820;DHT22;54618;52.018;5.576;2023-11-19T02:17:29;13.10;94.70
67820;DHT22;54618;52.018;5.576;2023-11-19T02:19:59;13.10;94.70
67820;DHT22;54618;52.018;5.576;2023-11-19T02:22:40;13.10;94.70
67820;DHT22;54618;52.018;5.576;2023-11-19T02:25:25;13.00;94.70
67820;DHT22;54618;52.018;5.576;2023-11-19T02:27:58;13.00;94.80
67820;DHT22;54618;52.018;5.576;2023-11-19T02:30:28;13.00;94.80
67820;DHT22;54618;52.018;5.576;2023-11-19T02:33:07;12.90;94.80
67820;DHT22;54618;52.018;5.576;2023-11-19T02:35:34;12.90;94.80
67820;DHT22;54618;52.018;5.576;2023-11-19T02:38:30;12.90;94.80
67820;DHT22;54618;52.018;5.576;2023-11-19T02:40:57;12.90;95.00
67820;DHT22;54618;52.018;5.576;2023-11-19T02:43:24;12.80;94.70
67820;DHT22;54618;52.018;5.576;2023-11-19T02:45:52;12.80;94.70
67820;DHT22;54618;52.018;5.576;2023-11-19T02:48:24;12.80;94.70
67820;DHT22;54618;52.018;5.576;2023-11-19T02:50:51;12.80;94.70
67820;DHT22;54618;52.018;5.576;2023-11-19T02:53:21;12.80;94.70
67820;DHT22;54618;52.018;5.576;2023-11-19T03:06:06;12.50;94.70
67820;DHT22;54618;52.018;5.576;2023-11-19T03:08:34;12.40;94.70
67820;DHT22;54618;52.018;5.576;2023-11-19T03:11:02;12.40;94.70
67820;DHT22;54618;52.018;5.576;2023-11-19T03:13:31;12.40;94.70
67820;DHT22;54618;52.018;5.576;2023-11-19T03:16:15;12.40;94.70
67820;DHT22;54618;52.018;5.576;2023-11-19T03:18:51;12.30;94.60
67820;DHT22;54618;52.018;5.576;2023-11-19T03:21:34;12.30;94.60
67820;DHT22;54618;52.018;5.576;2023-11-19T03:24:06;12.30;94.60
67820;DHT22;54618;52.018;5.576;2023-11-19T03:26:34;12.30;94.60
67820;DHT22;54618;52.018;5.576;2023-11-19T03:28:59;12.20;94.50
67820;DHT22;54618;52.018;5.576;2023-11-19T03:31:26;12.20;94.50
67820;DHT22;54618;52.018;5.576;2023-11-19T03:34:00;12.20;94.50
67820;DHT22;54618;52.018;5.576;2023-11-19T03:36:32;12.10;94.40
67820;DHT22;54618;52.018;5.576;2023-11-19T03:39:11;12.10;94.50
67820;DHT22;54618;52.018;5.576;2023-11-19T03:41:45;12.00;94.50
67820;DHT22;54618;52.018;5.576;2023-11-19T03:44:21;12.00;94.50
67820;DHT22;54618;52.018;5.576;2023-11-19T03:53:08;11.80;94.50
67820;DHT22;54618;52.018;5.576;2023-11-19T03:55:35;11.70;94.60
67820;DHT22;54618;52.018;5.576;2023-11-19T03:58:02;11.70;94.60
67820;DHT22;54618;52.018;5.576;2023-11-19T04:00:34;11.60;94.60
67820;DHT22;54618;52.018;5.576;2023-11-19T04:03:08;11.60;94.60
67820;DHT22;54618;52.018;5.576;2023-11-19T04:05:44;11.60;94.60
67820;DHT22;54618;52.018;5.576;2023-11-19T04:10:48;11.50;94.50
67820;DHT22;54618;52.018;5.576;2023-11-19T04:13:20;11.50;94.50
67820;DHT22;54618;52.018;5.576;2023-11-19T04:16:07;11.50;94.50
67820;DHT22;54618;52.018;5.576;2023-11-19T04:18:33;11.50;94.50
67820;DHT22;54618;52.018;5.576;2023-11-19T04:20:59;11.40;94.40
67820;DHT22;54618;52.018;5.576;2023-11-19T04:23:26;11.50;94.40
67820;DHT22;54618;52.018;5.576;2023-11-19T04:25:51;11.40;94.40
67820;DHT22;54618;52.018;5.576;2023-11-19T04:28:20;11.40;94.30
67820;DHT22;54618;52.018;5.576;2023-11-19T04:30:48;11.40;94.40
67820;DHT22;54618;52.018;5.576;2023-11-19T04:33:15;11.30;94.30
67820;DHT22;54618;52.018;5.576;2023-11-19T04:35:41;11.30;94.30
67820;DHT22;54618;52.018;5.576;2023-11-19T04:38:07;11.30;94.30
67820;DHT22;54618;52.018;5.576;2023-11-19T04:40:33;11.30;94.20
67820;DHT22;54618;52.018;5.576;2023-11-19T04:42:59;11.30;94.20
67820;DHT22;54618;52.018;5.576;2023-11-19T04:45:25;11.30;94.10
67820;DHT22;54618;52.018;5.576;2023-11-19T04:47:51;11.30;94.10
67820;DHT22;54618;52.018;5.576;2023-11-19T04:50:20;11.20;94.00
67820;DHT22;54618;52.018;5.576;2023-11-19T04:52:51;11.20;94.00
67820;DHT22;54618;52.018;5.576;2023-11-19T04:55:21;11.20;94.00
67820;DHT22;54618;52.018;5.576;2023-11-19T04:57:54;11.20;94.00
67820;DHT22;54618;52.018;5.576;2023-11-19T05:00:23;11.20;94.00
67820;DHT22;54618;52.018;5.576;2023-11-19T05:03:08;11.20;94.00
67820;DHT22;54618;52.018;5.576;2023-11-19T05:05:34;11.20;94.00
67820;DHT22;54618;52.018;5.576;2023-11-19T05:08:00;11.10;93.90
67820;DHT22;54618;52.018;5.576;2023-11-19T05:10:26;11.10;94.00
67820;DHT22;54618;52.018;5.576;2023-11-19T05:12:52;11.10;94.00
67820;DHT22;54618;52.018;5.576;2023-11-19T05:15:20;11.20;93.90
67820;DHT22;54618;52.018;5.576;2023-11-19T05:17:46;11.20;93.80
67820;DHT22;54618;52.018;5.576;2023-11-19T05:20:15;11.20;93.80
67820;DHT22;54618;52.018;5.576;2023-11-19T05:22:41;11.20;93.70
67820;DHT22;54618;52.018;5.576;2023-11-19T05:25:09;11.20;93.70
67820;DHT22;54618;52.018;5.576;2023-11-19T05:27:45;11.20;93.70
67820;DHT22;54618;52.018;5.576;2023-11-19T05:30:22;11.20;93.60
67820;DHT22;54618;52.018;5.576;2023-11-19T05:32:51;11.20;93.70
67820;DHT22;54618;52.018;5.576;2023-11-19T05:35:51;11.20;93.60
67820;DHT22;54618;52.018;5.576;2023-11-19T05:38:36;11.10;93.60
67820;DHT22;54618;52.018;5.576;2023-11-19T05:41:12;11.20;93.60
67820;DHT22;54618;52.018;5.576;2023-11-19T05:43:54;11.10;93.50
67820;DHT22;54618;52.018;5.576;2023-11-19T05:46:22;11.10;93.50
67820;DHT22;54618;52.018;5.576;2023-11-19T05:56:49;11.20;93.40
67820;DHT22;54618;52.018;5.576;2023-11-19T06:01:51;11.20;93.30
67820;DHT22;54618;52.018;5.576;2023-11-19T06:04:21;11.20;93.30
67820;DHT22;54618;52.018;5.576;2023-11-19T06:50:59;11.00;93.50
67820;DHT22;54618;52.018;5.576;2023-11-19T06:56:02;10.90;93.50
67820;DHT22;54618;52.018;5.576;2023-11-19T06:58:39;10.90;93.50
67820;DHT22;54618;52.018;5.576;2023-11-19T07:04:28;10.90;93.50
67820;DHT22;54618;52.018;5.576;2023-11-19T09:33:56;13.00;92.00
67820;DHT22;54618;52.018;5.576;2023-11-19T09:36:37;13.10;91.70
67820;DHT22;54618;52.018;5.576;2023-11-19T09:39:11;13.10;91.90
67820;DHT22;54618;52.018;5.576;2023-11-19T09:42:04;13.10;92.10
67820;DHT22;54618;52.018;5.576;2023-11-19T09:44:45;12.90;91.60
67820;DHT22;54618;52.018;5.576;2023-11-19T09:53:15;13.10;92.20
67820;DHT22;54618;52.018;5.576;2023-11-19T09:56:07;13.20;92.20
67820;DHT22;54618;52.018;5.576;2023-11-19T09:58:40;13.30;92.00
67820;DHT22;54618;52.018;5.576;2023-11-19T10:01:28;13.40;92.10
67820;DHT22;54618;52.018;5.576;2023-11-19T10:03:57;13.40;92.00
67820;DHT22;54618;52.018;5.576;2023-11-19T10:44:36;13.80;91.40
67820;DHT22;54618;52.018;5.576;2023-11-19T12:00:16;13.90;91.00
67820;DHT22;54618;52.018;5.576;2023-11-19T12:38:01;14.20;90.30
67820;DHT22;54618;52.018;5.576;2023-11-19T15:41:58;12.60;90.30
67820;DHT22;54618;52.018;5.576;2023-11-19T15:44:35;12.50;90.30
67820;DHT22;54618;52.018;5.576;2023-11-19T15:47:14;12.50;90.30
67820;DHT22;54618;52.018;5.576;2023-11-19T15:49:41;12.50;90.30
67820;DHT22;54618;52.018;5.576;2023-11-19T15:52:17;12.60;90.30
67820;DHT22;54618;52.018;5.576;2023-11-19T15:54:50;12.50;90.20
67820;DHT22;54618;52.018;5.576;2023-11-19T15:57:33;12.50;90.30
67820;DHT22;54618;52.018;5.576;2023-11-19T16:00:02;12.50;90.30
67820;DHT22;54618;52.018;5.576;2023-11-19T16:02:46;12.50;90.40
67820;DHT22;54618;52.018;5.576;2023-11-19T16:05:12;12.50;90.30
67820;DHT22;54618;52.018;5.576;2023-11-19T16:07:40;12.40;90.40
67820;DHT22;54618;52.018;5.576;2023-11-19T16:10:25;12.40;90.40
67820;DHT22;54618;52.018;5.576;2023-11-19T16:13:16;12.40;90.30
67820;DHT22;54618;52.018;5.576;2023-11-19T16:24:11;12.30;90.40
67820;DHT22;54618;52.018;5.576;2023-11-19T16:26:57;12.30;90.30
67820;DHT22;54618;52.018;5.576;2023-11-19T16:29:42;12.30;90.40
67820;DHT22;54618;52.018;5.576;2023-11-19T16:32:14;12.30;90.30
67820;DHT22;54618;52.018;5.576;2023-11-19T16:34:45;12.30;90.30
67820;DHT22;54618;52.018;5.576;2023-11-19T16:37:15;12.30;90.20
67820;DHT22;54618;52.018;5.576;2023-11-19T16:39:54;12.30;90.20
67820;DHT22;54618;52.018;5.576;2023-11-19T16:42:25;12.30;90.20
67820;DHT22;54618;52.018;5.576;2023-11-19T16:44:51;12.30;90.30
67820;DHT22;54618;52.018;5.576;2023-11-19T16:47:18;12.20;90.30
67820;DHT22;54618;52.018;5.576;2023-11-19T16:49:47;12.20;90.50
67820;DHT22;54618;52.018;5.576;2023-11-19T16:52:14;12.20;90.60
67820;DHT22;54618;52.018;5.576;2023-11-19T16:55:12;12.10;90.70
67820;DHT22;54618;52.018;5.576;2023-11-19T16:57:44;12.10;91.20
67820;DHT22;54618;52.018;5.576;2023-11-19T17:00:22;12.00;90.90
67820;DHT22;54618;52.018;5.576;2023-11-19T17:02:52;12.00;91.40
67820;DHT22;54618;52.018;5.576;2023-11-19T17:05:21;11.90;91.10
67820;DHT22;54618;52.018;5.576;2023-11-19T17:07:51;11.90;91.00
67820;DHT22;54618;52.018;5.576;2023-11-19T17:10:17;11.90;91.10
67820;DHT22;54618;52.018;5.576;2023-11-19T17:12:44;11.90;91.10
67820;DHT22;54618;52.018;5.576;2023-11-19T17:15:30;11.90;91.10
67820;DHT22;54618;52.018;5.576;2023-11-19T17:17:56;11.90;91.20
67820;DHT22;54618;52.018;5.576;2023-11-19T17:20:23;11.90;91.20
67820;DHT22;54618;52.018;5.576;2023-11-19T17:22:59;11.90;91.20
67820;DHT22;54618;52.018;5.576;2023-11-19T17:25:29;11.90;91.20
67820;DHT22;54618;52.018;5.576;2023-11-19T17:28:13;11.90;91.20
67820;DHT22;54618;52.018;5.576;2023-11-19T17:43:54;11.90;91.20
67820;DHT22;54618;52.018;5.576;2023-11-19T18:02:24;11.80;91.50
67820;DHT22;54618;52.018;5.576;2023-11-19T18:04:50;11.80;91.60
67820;DHT22;54618;52.018;5.576;2023-11-19T18:07:16;11.80;91.50
67820;DHT22;54618;52.018;5.576;2023-11-19T18:09:48;11.80;91.70
67820;DHT22;54618;52.018;5.576;2023-11-19T18:12:28;11.80;91.60
67820;DHT22;54618;52.018;5.576;2023-11-19T18:14:54;11.80;91.60
67820;DHT22;54618;52.018;5.576;2023-11-19T18:17:23;11.80;91.70
67820;DHT22;54618;52.018;5.576;2023-11-19T18:19:52;11.70;91.60
67820;DHT22;54618;52.018;5.576;2023-11-19T18:22:17;11.80;92.00
67820;DHT22;54618;52.018;5.576;2023-11-19T18:24:43;11.80;91.80
67820;DHT22;54618;52.018;5.576;2023-11-19T18:27:08;11.80;91.90
67820;DHT22;54618;52.018;5.576;2023-11-19T18:29:34;11.80;92.00
67820;DHT22;54618;52.018;5.576;2023-11-19T18:32:03;11.80;91.80
67820;DHT22;54618;52.018;5.576;2023-11-19T18:34:29;11.80;91.90
67820;DHT22;54618;52.018;5.576;2023-11-19T18:36:55;11.80;92.30
67820;DHT22;54618;52.018;5.576;2023-11-19T18:39:24;11.80;91.90
67820;DHT22;54618;52.018;5.576;2023-11-19T18:41:54;11.80;91.90
67820;DHT22;54618;52.018;5.576;2023-11-19T18:44:22;11.80;92.00
67820;DHT22;54618;52.018;5.576;2023-11-19T18:46:51;11.80;92.20
67820;DHT22;54618;52.018;5.576;2023-11-19T18:49:17;11.80;92.10
67820;DHT22;54618;52.018;5.576;2023-11-19T18:51:42;11.80;92.00
67820;DHT22;54618;52.018;5.576;2023-11-19T18:54:08;11.80;92.00
67820;DHT22;54618;52.018;5.576;2023-11-19T18:56:34;11.80;92.00
67820;DHT22;54618;52.018;5.576;2023-11-19T18:59:00;11.80;92.00
67820;DHT22;54618;52.018;5.576;2023-11-19T19:01:26;11.80;92.00
67820;DHT22;54618;52.018;5.576;2023-11-19T19:03:55;11.80;92.10
67820;DHT22;54618;52.018;5.576;2023-11-19T19:06:21;11.80;92.10
67820;DHT22;54618;52.018;5.576;2023-11-19T19:08:47;11.80;92.10
67820;DHT22;54618;52.018;5.576;2023-11-19T19:11:15;11.80;92.10
67820;DHT22;54618;52.018;5.576;2023-11-19T19:13:44;11.80;92.10
67820;DHT22;54618;52.018;5.576;2023-11-19T19:16:26;11.80;92.20
67820;DHT22;54618;52.018;5.576;2023-11-19T19:18:53;11.80;92.50
67820;DHT22;54618;52.018;5.576;2023-11-19T19:21:23;11.80;92.20
67820;DHT22;54618;52.018;5.576;2023-11-19T19:23:52;11.80;92.20
67820;DHT22;54618;52.018;5.576;2023-11-19T19:26:23;11.80;92.40
67820;DHT22;54618;52.018;5.576;2023-11-19T19:28:53;11.80;92.30
67820;DHT22;54618;52.018;5.576;2023-11-19T19:31:23;11.80;92.40
67820;DHT22;54618;52.018;5.576;2023-11-19T19:34:02;11.80;93.00
67820;DHT22;54618;52.018;5.576;2023-11-19T19:36:29;11.80;92.40
67820;DHT22;54618;52.018;5.576;2023-11-19T19:38:56;11.80;92.40
67820;DHT22;54618;52.018;5.576;2023-11-19T19:41:23;11.80;92.30
67820;DHT22;54618;52.018;5.576;2023-11-19T19:43:53;11.80;92.30
67820;DHT22;54618;52.018;5.576;2023-11-19T19:46:21;11.80;92.20
67820;DHT22;54618;52.018;5.576;2023-11-19T19:48:52;11.80;92.60
67820;DHT22;54618;52.018;5.576;2023-11-19T19:51:23;11.80;92.30
67820;DHT22;54618;52.018;5.576;2023-11-19T19:53:52;11.80;92.40
67820;DHT22;54618;52.018;5.576;2023-11-19T19:56:18;11.80;92.40
67820;DHT22;54618;52.018;5.576;2023-11-19T19:58:48;11.80;92.30
67820;DHT22;54618;52.018;5.576;2023-11-19T20:01:13;11.80;92.40
67820;DHT22;54618;52.018;5.576;2023-11-19T20:03:40;11.80;92.30
67820;DHT22;54618;52.018;5.576;2023-11-19T20:06:06;11.80;92.60
67820;DHT22;54618;52.018;5.576;2023-11-19T20:08:37;11.80;92.50
67820;DHT22;54618;52.018;5.576;2023-11-19T20:11:04;11.80;92.40
67820;DHT22;54618;52.018;5.576;2023-11-19T20:13:38;11.80;92.70
67820;DHT22;54618;52.018;5.576;2023-11-19T20:16:04;11.80;92.40
67820;DHT22;54618;52.018;5.576;2023-11-19T20:18:30;11.80;92.70
67820;DHT22;54618;52.018;5.576;2023-11-19T20:20:57;11.80;92.50
67820;DHT22;54618;52.018;5.576;2023-11-19T20:23:29;11.90;92.60
67820;DHT22;54618;52.018;5.576;2023-11-19T20:25:58;11.80;92.60
67820;DHT22;54618;52.018;5.576;2023-11-19T20:28:23;11.90;92.50
67820;DHT22;54618;52.018;5.576;2023-11-19T20:30:52;11.90;92.50
67820;DHT22;54618;52.018;5.576;2023-11-19T20:33:18;11.90;92.50
67820;DHT22;54618;52.018;5.576;2023-11-19T20:35:45;11.90;92.50
67820;DHT22;54618;52.018;5.576;2023-11-19T20:38:10;11.90;92.50
67820;DHT22;54618;52.018;5.576;2023-11-19T20:40:37;11.90;92.90
67820;DHT22;54618;52.018;5.576;2023-11-19T20:43:04;11.90;92.80
67820;DHT22;54618;52.018;5.576;2023-11-19T20:45:29;11.90;92.60
67820;DHT22;54618;52.018;5.576;2023-11-19T20:47:55;11.90;92.70
67820;DHT22;54618;52.018;5.576;2023-11-19T20:50:21;12.00;92.70
67820;DHT22;54618;52.018;5.576;2023-11-19T20:52:53;12.00;92.70
67820;DHT22;54618;52.018;5.576;2023-11-19T20:55:22;12.00;92.70
67820;DHT22;54618;52.018;5.576;2023-11-19T20:57:48;11.90;92.80
67820;DHT22;54618;52.018;5.576;2023-11-19T21:00:15;12.00;92.80
67820;DHT22;54618;52.018;5.576;2023-11-19T21:02:42;12.00;92.90
67820;DHT22;54618;52.018;5.576;2023-11-19T21:05:08;12.00;92.80
67820;DHT22;54618;52.018;5.576;2023-11-19T21:07:34;12.00;92.70
67820;DHT22;54618;52.018;5.576;2023-11-19T21:10:00;12.00;92.90
67820;DHT22;54618;52.018;5.576;2023-11-19T21:12:26;12.00;92.80
67820;DHT22;54618;52.018;5.576;2023-11-19T21:14:51;12.00;92.80
67820;DHT22;54618;52.018;5.576;2023-11-19T21:17:17;12.00;92.80
67820;DHT22;54618;52.018;5.576;2023-11-19T21:19:43;12.00;92.80
67820;DHT22;54618;52.018;5.576;2023-11-19T21:22:11;12.00;93.20
67820;DHT22;54618;52.018;5.576;2023-11-19T21:24:37;12.00;93.00
67820;DHT22;54618;52.018;5.576;2023-11-19T21:27:03;12.00;93.00
67820;DHT22;54618;52.018;5.576;2023-11-19T21:29:33;12.00;92.90
67820;DHT22;54618;52.018;5.576;2023-11-19T21:31:58;12.00;92.80
67820;DHT22;54618;52.018;5.576;2023-11-19T21:34:24;12.00;92.90
67820;DHT22;54618;52.018;5.576;2023-11-19T21:36:52;12.00;92.90
67820;DHT22;54618;52.018;5.576;2023-11-19T21:39:18;12.00;93.00
67820;DHT22;54618;52.018;5.576;2023-11-19T21:41:48;12.00;93.10
67820;DHT22;54618;52.018;5.576;2023-11-19T21:44:14;12.00;93.80
67820;DHT22;54618;52.018;5.576;2023-11-19T21:46:40;12.10;93.20
67820;DHT22;54618;52.018;5.576;2023-11-19T21:49:05;12.00;93.00
67820;DHT22;54618;52.018;5.576;2023-11-19T21:51:31;12.00;92.90
67820;DHT22;54618;52.018;5.576;2023-11-19T21:53:57;12.10;92.80
67820;DHT22;54618;52.018;5.576;2023-11-19T21:56:22;12.10;93.00
67820;DHT22;54618;52.018;5.576;2023-11-19T21:58:49;12.10;93.00
67820;DHT22;54618;52.018;5.576;2023-11-19T22:01:22;12.00;92.90
67820;DHT22;54618;52.018;5.576;2023-11-19T22:06:23;12.10;93.20
67820;DHT22;54618;52.018;5.576;2023-11-19T22:08:54;12.10;92.90
67820;DHT22;54618;52.018;5.576;2023-11-19T22:11:26;12.10;93.00
67820;DHT22;54618;52.018;5.576;2023-11-19T22:13:53;12.10;92.80
67820;DHT22;54618;52.018;5.576;2023-11-19T22:16:24;12.10;92.80
67820;DHT22;54618;52.018;5.576;2023-11-19T22:18:55;12.20;92.80
67820;DHT22;54618;52.018;5.576;2023-11-19T22:21:24;12.10;92.80
67820;DHT22;54618;52.018;5.576;2023-11-19T22:23:54;12.10;92.80
67820;DHT22;54618;52.018;5.576;2023-11-19T22:26:24;12.10;92.90
67820;DHT22;54618;52.018;5.576;2023-11-19T22:28:53;12.10;93.00
67820;DHT22;54618;52.018;5.576;2023-11-19T22:31:23;12.10;93.00
67820;DHT22;54618;52.018;5.576;2023-11-19T22:33:48;12.20;93.10
67820;DHT22;54618;52.018;5.576;2023-11-19T22:36:15;12.20;93.00
67820;DHT22;54618;52.018;5.576;2023-11-19T22:38:58;12.20;92.90
67820;DHT22;54618;52.018;5.576;2023-11-19T22:41:24;12.10;93.10
67820;DHT22;54618;52.018;5.576;2023-11-19T22:43:53;12.10;93.10
67820;DHT22;54618;52.018;5.576;2023-11-19T22:46:19;12.10;93.30
67820;DHT22;54618;52.018;5.576;2023-11-19T22:48:48;12.10;93.30
67820;DHT22;54618;52.018;5.576;2023-11-19T22:51:13;12.10;93.20
67820;DHT22;54618;52.018;5.576;2023-11-19T22:53:40;12.10;93.30
67820;DHT22;54618;52.018;5.576;2023-11-19T22:56:07;12.10;93.20
67820;DHT22;54618;52.018;5.576;2023-11-19T22:58:32;12.10;93.20
67820;DHT22;54618;52.018;5.576;2023-11-19T23:01:01;12.10;93.20
67820;DHT22;54618;52.018;5.576;2023-11-19T23:03:28;12.10;93.20
67820;DHT22;54618;52.018;5.576;2023-11-19T23:05:57;12.10;93.20
67820;DHT22;54618;52.018;5.576;2023-11-19T23:08:23;12.10;93.30
67820;DHT22;54618;52.018;5.576;2023-11-19T23:10:48;12.10;93.40
67820;DHT22;54618;52.018;5.576;2023-11-19T23:13:14;12.00;93.30
67820;DHT22;54618;52.018;5.576;2023-11-19T23:15:43;12.00;93.30
67820;DHT22;54618;52.018;5.576;2023-11-19T23:18:09;12.10;93.40
67820;DHT22;54618;52.018;5.576;2023-11-19T23:20:34;12.00;93.40
67820;DHT22;54618;52.018;5.576;2023-11-19T23:23:00;12.00;93.40
67820;DHT22;54618;52.018;5.576;2023-11-19T23:25:25;12.00;93.30
67820;DHT22;54618;52.018;5.576;2023-11-19T23:27:52;12.00;93.40
67820;DHT22;54618;52.018;5.576;2023-11-19T23:30:18;12.00;93.40
67820;DHT22;54618;52.018;5.576;2023-11-19T23:32:44;12.00;93.50
67820;DHT22;54618;52.018;5.576;2023-11-19T23:35:10;12.00;93.50
67820;DHT22;54618;52.018;5.576;2023-11-19T23:37:37;12.00;93.50
67820;DHT22;54618;52.018;5.576;2023-11-19T23:40:03;12.00;93.50
67820;DHT22;54618;52.018;5.576;2023-11-19T23:42:32;12.00;93.50
67820;DHT22;54618;52.018;5.576;2023-11-19T23:44:58;12.00;93.60
67820;DHT22;54618;52.018;5.576;2023-11-19T23:47:24;12.00;93.60
67820;DHT22;54618;52.018;5.576;2023-11-19T23:49:53;12.00;93.60
67820;DHT22;54618;52.018;5.576;2023-11-19T23:52:18;12.00;93.60
67820;DHT22;54618;52.018;5.576;2023-11-19T23:54:44;12.00;93.50
67820;DHT22;54618;52.018;5.576;2023-11-19T23:57:09;11.90;93.50
67820;DHT22;54618;52.018;5.576;2023-11-19T23:59:36;11.90;93.50
